Oklahoma City, OK (73106)

7:41 AM CST on March 01, 2015 (GMT -0600)
Heritage Hills | Change Station
CLOSE
Current Station
Personal Weather Station
Location: Oklahoma City, OK
Elevation: 1280 ft
Nearby Weather Stations
Active Advisory: Winter Weather Advisory Active Notice: Local Storm Report

Elev 1280 ft 35.48 °N, 97.52 °W | Updated 7 minutes ago

Overcast
Overcast
27.5 °F
Feels Like 28 °F
N
2.0
Wind Variable Wind from ENE
Gusts 4.0 mph

Today
High -- | Low -- °F
--% Chance of Precip.
Yesterday
High -- | Low -- °F
Precip. -- in
7:00 AM 6:25 PM
Waxing Gibbous, 85% visible
Pressure 30.35 in
Visibility 1.2 miles
Clouds Overcast 300 ft
Windchill 28 °F
Dew Point 24 °F
Humidity 88%
Rainfall 0.00 in
Snow Depth Not available.
UV 0 out of 12
Pollen 6.20 out of 12
Air Quality Not available.
Flu Activity Not available.
SPECI KPWA 011314Z 01005KT 1 1/4SM BR OVC003 M03/M03 A3035 RMK AO2 TWR VIS 2 $

More Conditions Fewer Conditions

Pressure 30.35 in
Visibility 1.2 miles
Clouds Overcast 300 ft
Windchill 28 °F
Dew Point 24 °F
Humidity 88%
Rainfall 0.00 in
Snow Depth Not available.
UV 0 out of 12
Pollen 6.20 out of 12
Air Quality Not available.
Flu Activity Not available.
SPECI KPWA 011314Z 01005KT 1 1/4SM BR OVC003 M03/M03 A3035 RMK AO2 TWR VIS 2 $

More Conditions Fewer Conditions

10-Day Weather Forecast

Almanac

Astronomy

Mar. 01, 2015 Rise Set
Actual Time
Civil Twilight
Nautical Twilight
Astronomical Twilight
Moon
Length of Visible Light
Length of Day
Tomorrow will be .
, % of the Moon is Illuminated

Today's Extremes

State Highs State Lows

Community

WunderPhotos

Upload Photos

1,801,382 photos uploaded!

WunderBlogs® & News

Nearby

Air Quality

  Air Quality AQ Index Pollutant
Not available.

Snow Depth

Station Depth Elevation

Earthquake Activity

City Distance Mag. Time & Date
Minimum magnitude displayed is 2.5.

Coastal Water Temperatures

Place Temperature

Nearby Weather Stations

Winter Weather Advisory
Statement as of 2:45 AM CST on March 01, 2015

... Winter Weather Advisory now in effect until 11 am CST this
morning...

* main impact: periods of freezing drizzle will maintain iced
surfaces.

* Roads and walkways: roads and walkways will be very slick and
hazardous.

Precautionary/preparedness actions...

Be careful if you have to travel. Even small amounts of ice and
snow can make roads and sidewalks slick and dangerous.